Current | Forecast
Updated: 10:30 AM +09 on December 11, 2017
Observed at Yakutsk, Russia
Temperature -35°F
Humidity 68%
Dew Point -42°F
Wind North at 0 mph
Pressure 30.83 in (Steady)
Conditions Mist
Visibility 3.1 miles
UV N/A
Clouds
Yesterday's Maximum -29°F
Yesterday's Minimum -33°F approx.
Yesterday's Heating Degree Days 96 approx.
Sunrise9:24 AM +09
Sunset2:52 PM +09
Moon Rise
Moon Set1:22 PM +09
Moon PhaseMoon Phase
Last Quarter
Raw METARMETAR UEEE 110130Z 00000MPS 5000 BR NSC M37/M41 Q1044 R23L/490150 NOSIG RMK QFE774


Monday
. High: 48° F.
Tuesday
. High: 51° F.
Wednesday
. High: 53° F.
Thursday
. High: 57° F.
Friday
. High: 60° F.
Saturday
. High: 62° F.
Sunday
. High: 53° F.
Monday
. High: 55° F.

Units: English | Metric

Find the Weather for any City, State or Zipcode, or Country:

U.S. State List | Severe Weather | Tropical Storms | Ski Conditions
United States | Canada | Central America | South America | Asia | Europe | Australia | Africa | Islands

Weather Underground

© Copyright 2017
The Weather Company, LLC